SLET/SRZ METAR and TAF weather

Enter ICAO airport designator
Station Type Date Time Source
SLET METAR 2020/02/28 23:00 UTC NOAA

SLET 282300Z VRB02KT 9999 NSC 29/18 Q1012


Station Type Date Time Source
SLET Decoded METAR 2020/02/28 23:00 UTC NOAA

Santa Cruz / El Trompillo, Bolivia (SLET) 17-48S 063-11W 414M
Feb 28, 2020 - 06:00 PM EST / 2020.02.28 2300 UTC
Wind: Variable at 2 MPH (2 KT):0
Visibility: greater than 7 mile(s):0
Temperature: 84 F (29 C)
Dew Point: 64 F (18 C)
Relative Humidity: 51%
Pressure (altimeter): 29.88 in. Hg (1012 hPa)
ob: SLET 282300Z VRB02KT 9999 NSC 29/18 Q1012
cycle: 23

Station Type Date Time Source
SLET TAF 2020/02/28 18:50 UTC NOAA

TAF SLET 281640Z 2818/2918 17004KT 9999 NSC TX32/2819Z TN21/2910Z
BECMG 2909/2912 VRB02KT

Example: see airport list